sensor_id;sensor_type;location;lat;lon;timestamp;temperature;humidity
15707;DHT22;7953;54.302;10.128;2023-04-01T00:01:38;8.80;99.90
15707;DHT22;7953;54.302;10.128;2023-04-01T00:04:05;8.80;99.90
15707;DHT22;7953;54.302;10.128;2023-04-01T00:06:31;8.80;99.90
15707;DHT22;7953;54.302;10.128;2023-04-01T00:08:58;8.70;99.90
15707;DHT22;7953;54.302;10.128;2023-04-01T00:11:25;8.70;99.90
15707;DHT22;7953;54.302;10.128;2023-04-01T00:13:53;8.60;99.90
15707;DHT22;7953;54.302;10.128;2023-04-01T00:16:22;8.50;99.90
15707;DHT22;7953;54.302;10.128;2023-04-01T00:18:49;8.50;99.90
15707;DHT22;7953;54.302;10.128;2023-04-01T00:21:17;8.50;99.90
15707;DHT22;7953;54.302;10.128;2023-04-01T00:23:44;8.40;99.90
15707;DHT22;7953;54.302;10.128;2023-04-01T00:26:11;8.40;99.90
15707;DHT22;7953;54.302;10.128;2023-04-01T00:28:40;8.30;99.90
15707;DHT22;7953;54.302;10.128;2023-04-01T00:31:08;8.30;99.90
15707;DHT22;7953;54.302;10.128;2023-04-01T00:33:37;8.20;99.90
15707;DHT22;7953;54.302;10.128;2023-04-01T00:36:09;8.20;99.90
15707;DHT22;7953;54.302;10.128;2023-04-01T00:38:36;8.20;99.90
15707;DHT22;7953;54.302;10.128;2023-04-01T00:41:04;8.20;99.90
15707;DHT22;7953;54.302;10.128;2023-04-01T00:43:31;8.20;99.90
15707;DHT22;7953;54.302;10.128;2023-04-01T00:45:58;8.10;99.90
15707;DHT22;7953;54.302;10.128;2023-04-01T00:48:29;8.20;99.90
15707;DHT22;7953;54.302;10.128;2023-04-01T00:51:02;8.20;99.90
15707;DHT22;7953;54.302;10.128;2023-04-01T00:53:32;8.10;99.90
15707;DHT22;7953;54.302;10.128;2023-04-01T00:56:04;8.00;99.90
15707;DHT22;7953;54.302;10.128;2023-04-01T00:58:36;8.00;99.90
15707;DHT22;7953;54.302;10.128;2023-04-01T01:01:04;8.00;99.90
15707;DHT22;7953;54.302;10.128;2023-04-01T01:03:32;8.00;99.90
15707;DHT22;7953;54.302;10.128;2023-04-01T01:06:09;7.90;99.90
15707;DHT22;7953;54.302;10.128;2023-04-01T01:08:52;7.90;99.90
15707;DHT22;7953;54.302;10.128;2023-04-01T01:11:24;7.90;99.90
15707;DHT22;7953;54.302;10.128;2023-04-01T01:14:00;7.80;99.90
15707;DHT22;7953;54.302;10.128;2023-04-01T01:16:30;7.80;99.90
15707;DHT22;7953;54.302;10.128;2023-04-01T01:19:07;7.70;99.90
15707;DHT22;7953;54.302;10.128;2023-04-01T01:21:53;7.60;99.90
15707;DHT22;7953;54.302;10.128;2023-04-01T01:24:38;7.60;99.90
15707;DHT22;7953;54.302;10.128;2023-04-01T01:27:09;7.60;99.90
15707;DHT22;7953;54.302;10.128;2023-04-01T01:30:08;7.60;99.90
15707;DHT22;7953;54.302;10.128;2023-04-01T01:32:58;7.50;99.90
15707;DHT22;7953;54.302;10.128;2023-04-01T01:35:31;7.50;99.90
15707;DHT22;7953;54.302;10.128;2023-04-01T01:38:01;7.40;99.90
15707;DHT22;7953;54.302;10.128;2023-04-01T01:40:31;7.40;99.90
15707;DHT22;7953;54.302;10.128;2023-04-01T01:43:03;7.40;99.90
15707;DHT22;7953;54.302;10.128;2023-04-01T01:45:33;7.40;99.90
15707;DHT22;7953;54.302;10.128;2023-04-01T01:48:03;7.30;99.90
15707;DHT22;7953;54.302;10.128;2023-04-01T01:50:32;7.30;99.90
15707;DHT22;7953;54.302;10.128;2023-04-01T01:53:04;7.20;99.90
15707;DHT22;7953;54.302;10.128;2023-04-01T01:55:33;7.20;99.90
15707;DHT22;7953;54.302;10.128;2023-04-01T01:58:05;7.20;99.90
15707;DHT22;7953;54.302;10.128;2023-04-01T02:00:33;7.20;99.90
15707;DHT22;7953;54.302;10.128;2023-04-01T02:03:01;7.20;99.90
15707;DHT22;7953;54.302;10.128;2023-04-01T02:05:29;7.10;99.90
15707;DHT22;7953;54.302;10.128;2023-04-01T02:08:02;7.10;99.90
15707;DHT22;7953;54.302;10.128;2023-04-01T02:10:35;7.10;99.90
15707;DHT22;7953;54.302;10.128;2023-04-01T02:13:07;7.00;99.90
15707;DHT22;7953;54.302;10.128;2023-04-01T02:15:41;7.00;99.90
15707;DHT22;7953;54.302;10.128;2023-04-01T02:18:10;6.90;99.90
15707;DHT22;7953;54.302;10.128;2023-04-01T02:20:39;7.00;99.90
15707;DHT22;7953;54.302;10.128;2023-04-01T02:23:08;6.90;99.90
15707;DHT22;7953;54.302;10.128;2023-04-01T02:25:36;6.80;99.90
15707;DHT22;7953;54.302;10.128;2023-04-01T02:28:05;6.80;99.90
15707;DHT22;7953;54.302;10.128;2023-04-01T02:30:35;6.70;99.90
15707;DHT22;7953;54.302;10.128;2023-04-01T02:33:04;6.70;99.90
15707;DHT22;7953;54.302;10.128;2023-04-01T02:35:34;6.70;99.90
15707;DHT22;7953;54.302;10.128;2023-04-01T02:38:02;6.70;99.90
15707;DHT22;7953;54.302;10.128;2023-04-01T02:40:41;6.70;99.90
15707;DHT22;7953;54.302;10.128;2023-04-01T02:43:08;6.70;99.90
15707;DHT22;7953;54.302;10.128;2023-04-01T02:45:35;6.60;99.90
15707;DHT22;7953;54.302;10.128;2023-04-01T02:48:02;6.60;99.90
15707;DHT22;7953;54.302;10.128;2023-04-01T02:50:30;6.50;99.90
15707;DHT22;7953;54.302;10.128;2023-04-01T02:52:57;6.50;99.90
15707;DHT22;7953;54.302;10.128;2023-04-01T02:55:23;6.50;99.90
15707;DHT22;7953;54.302;10.128;2023-04-01T02:57:52;6.50;99.90
15707;DHT22;7953;54.302;10.128;2023-04-01T03:00:19;6.50;99.90
15707;DHT22;7953;54.302;10.128;2023-04-01T03:02:46;6.50;99.90
15707;DHT22;7953;54.302;10.128;2023-04-01T03:05:12;6.40;99.90
15707;DHT22;7953;54.302;10.128;2023-04-01T03:07:40;6.40;99.90
15707;DHT22;7953;54.302;10.128;2023-04-01T03:10:07;6.40;99.90
15707;DHT22;7953;54.302;10.128;2023-04-01T03:12:34;6.40;99.90
15707;DHT22;7953;54.302;10.128;2023-04-01T03:15:04;6.30;99.90
15707;DHT22;7953;54.302;10.128;2023-04-01T03:17:31;6.40;99.90
15707;DHT22;7953;54.302;10.128;2023-04-01T03:19:58;6.30;99.90
15707;DHT22;7953;54.302;10.128;2023-04-01T03:22:25;6.20;99.90
15707;DHT22;7953;54.302;10.128;2023-04-01T03:24:52;6.20;99.90
15707;DHT22;7953;54.302;10.128;2023-04-01T03:27:19;6.20;99.90
15707;DHT22;7953;54.302;10.128;2023-04-01T03:29:46;6.20;99.90
15707;DHT22;7953;54.302;10.128;2023-04-01T03:32:14;6.20;99.90
15707;DHT22;7953;54.302;10.128;2023-04-01T03:34:41;6.10;99.90
15707;DHT22;7953;54.302;10.128;2023-04-01T03:37:08;6.10;99.90
15707;DHT22;7953;54.302;10.128;2023-04-01T03:39:35;6.00;99.90
15707;DHT22;7953;54.302;10.128;2023-04-01T03:42:02;6.10;99.90
15707;DHT22;7953;54.302;10.128;2023-04-01T03:44:30;6.00;99.90
15707;DHT22;7953;54.302;10.128;2023-04-01T03:46:58;6.00;99.90
15707;DHT22;7953;54.302;10.128;2023-04-01T03:49:26;5.90;99.90
15707;DHT22;7953;54.302;10.128;2023-04-01T03:51:53;5.90;99.90
15707;DHT22;7953;54.302;10.128;2023-04-01T03:54:20;6.00;99.90
15707;DHT22;7953;54.302;10.128;2023-04-01T03:56:47;5.90;99.90
15707;DHT22;7953;54.302;10.128;2023-04-01T03:59:14;5.90;99.90
15707;DHT22;7953;54.302;10.128;2023-04-01T04:01:41;5.90;99.90
15707;DHT22;7953;54.302;10.128;2023-04-01T04:04:10;5.90;99.90
15707;DHT22;7953;54.302;10.128;2023-04-01T04:06:39;5.80;99.90
15707;DHT22;7953;54.302;10.128;2023-04-01T04:09:06;5.80;99.90
15707;DHT22;7953;54.302;10.128;2023-04-01T04:11:33;5.80;99.90
15707;DHT22;7953;54.302;10.128;2023-04-01T04:14:00;5.70;99.90
15707;DHT22;7953;54.302;10.128;2023-04-01T04:16:27;5.70;99.90
15707;DHT22;7953;54.302;10.128;2023-04-01T04:18:54;5.70;99.90
15707;DHT22;7953;54.302;10.128;2023-04-01T04:21:21;5.70;99.90
15707;DHT22;7953;54.302;10.128;2023-04-01T04:23:49;5.70;99.90
15707;DHT22;7953;54.302;10.128;2023-04-01T04:26:17;5.70;99.90
15707;DHT22;7953;54.302;10.128;2023-04-01T04:28:44;5.70;99.90
15707;DHT22;7953;54.302;10.128;2023-04-01T04:31:11;5.70;99.90
15707;DHT22;7953;54.302;10.128;2023-04-01T04:33:38;5.70;99.90
15707;DHT22;7953;54.302;10.128;2023-04-01T04:36:05;5.70;99.90
15707;DHT22;7953;54.302;10.128;2023-04-01T04:38:32;5.70;99.90
15707;DHT22;7953;54.302;10.128;2023-04-01T04:41:00;5.70;99.90
15707;DHT22;7953;54.302;10.128;2023-04-01T04:43:27;5.70;99.90
15707;DHT22;7953;54.302;10.128;2023-04-01T04:45:54;5.60;99.90
15707;DHT22;7953;54.302;10.128;2023-04-01T04:48:21;5.60;99.90
15707;DHT22;7953;54.302;10.128;2023-04-01T04:50:48;5.60;99.90
15707;DHT22;7953;54.302;10.128;2023-04-01T04:53:16;5.60;99.90
15707;DHT22;7953;54.302;10.128;2023-04-01T04:55:44;5.60;99.90
15707;DHT22;7953;54.302;10.128;2023-04-01T04:58:12;5.50;99.90
15707;DHT22;7953;54.302;10.128;2023-04-01T05:00:39;5.50;99.90
15707;DHT22;7953;54.302;10.128;2023-04-01T05:03:07;5.50;99.90
15707;DHT22;7953;54.302;10.128;2023-04-01T05:05:34;5.50;99.90
15707;DHT22;7953;54.302;10.128;2023-04-01T05:08:01;5.50;99.90
15707;DHT22;7953;54.302;10.128;2023-04-01T05:10:28;5.50;99.90
15707;DHT22;7953;54.302;10.128;2023-04-01T05:12:56;5.50;99.90
15707;DHT22;7953;54.302;10.128;2023-04-01T05:15:24;5.40;99.90
15707;DHT22;7953;54.302;10.128;2023-04-01T05:17:51;5.50;99.90
15707;DHT22;7953;54.302;10.128;2023-04-01T05:20:18;5.50;99.90
15707;DHT22;7953;54.302;10.128;2023-04-01T05:22:45;5.40;99.90
15707;DHT22;7953;54.302;10.128;2023-04-01T05:25:11;5.50;99.90
15707;DHT22;7953;54.302;10.128;2023-04-01T05:27:38;5.50;99.90
15707;DHT22;7953;54.302;10.128;2023-04-01T05:30:06;5.50;99.90
15707;DHT22;7953;54.302;10.128;2023-04-01T05:32:35;5.50;99.90
15707;DHT22;7953;54.302;10.128;2023-04-01T05:35:01;5.50;99.90
15707;DHT22;7953;54.302;10.128;2023-04-01T05:37:28;5.40;99.90
15707;DHT22;7953;54.302;10.128;2023-04-01T05:39:55;5.40;99.90
15707;DHT22;7953;54.302;10.128;2023-04-01T05:42:24;5.40;99.90
15707;DHT22;7953;54.302;10.128;2023-04-01T05:44:51;5.40;99.90
15707;DHT22;7953;54.302;10.128;2023-04-01T05:47:18;5.40;99.90
15707;DHT22;7953;54.302;10.128;2023-04-01T05:49:46;5.40;99.90
15707;DHT22;7953;54.302;10.128;2023-04-01T05:52:13;5.40;99.90
15707;DHT22;7953;54.302;10.128;2023-04-01T05:54:40;5.50;99.90
15707;DHT22;7953;54.302;10.128;2023-04-01T05:57:07;5.50;99.90
15707;DHT22;7953;54.302;10.128;2023-04-01T05:59:34;5.50;99.90
15707;DHT22;7953;54.302;10.128;2023-04-01T06:02:01;5.40;99.90
15707;DHT22;7953;54.302;10.128;2023-04-01T06:04:34;5.40;99.90
15707;DHT22;7953;54.302;10.128;2023-04-01T06:07:11;5.40;99.90
15707;DHT22;7953;54.302;10.128;2023-04-01T06:09:38;5.40;99.90
15707;DHT22;7953;54.302;10.128;2023-04-01T06:12:21;5.40;99.90
15707;DHT22;7953;54.302;10.128;2023-04-01T06:14:59;5.40;99.90
15707;DHT22;7953;54.302;10.128;2023-04-01T06:17:39;5.40;99.90
15707;DHT22;7953;54.302;10.128;2023-04-01T06:20:13;5.40;99.90
15707;DHT22;7953;54.302;10.128;2023-04-01T06:23:02;5.40;99.90
15707;DHT22;7953;54.302;10.128;2023-04-01T06:25:43;5.50;99.90
15707;DHT22;7953;54.302;10.128;2023-04-01T06:28:41;5.50;99.90
15707;DHT22;7953;54.302;10.128;2023-04-01T06:31:20;5.40;99.90
15707;DHT22;7953;54.302;10.128;2023-04-01T06:33:58;5.40;99.90
15707;DHT22;7953;54.302;10.128;2023-04-01T06:36:54;5.50;99.90
15707;DHT22;7953;54.302;10.128;2023-04-01T06:39:45;5.40;99.90
15707;DHT22;7953;54.302;10.128;2023-04-01T06:42:42;5.40;99.90
15707;DHT22;7953;54.302;10.128;2023-04-01T06:45:22;5.40;99.90
15707;DHT22;7953;54.302;10.128;2023-04-01T06:48:06;5.50;99.90
15707;DHT22;7953;54.302;10.128;2023-04-01T06:50:43;5.50;99.90
15707;DHT22;7953;54.302;10.128;2023-04-01T06:53:18;5.50;99.90
15707;DHT22;7953;54.302;10.128;2023-04-01T06:55:51;5.50;99.90
15707;DHT22;7953;54.302;10.128;2023-04-01T06:58:21;5.50;99.90
15707;DHT22;7953;54.302;10.128;2023-04-01T07:00:51;5.50;99.90
15707;DHT22;7953;54.302;10.128;2023-04-01T07:03:23;5.50;99.90
15707;DHT22;7953;54.302;10.128;2023-04-01T07:05:59;5.50;99.90
15707;DHT22;7953;54.302;10.128;2023-04-01T07:08:29;5.50;99.90
15707;DHT22;7953;54.302;10.128;2023-04-01T07:11:02;5.50;99.90
15707;DHT22;7953;54.302;10.128;2023-04-01T07:13:34;5.50;99.90
15707;DHT22;7953;54.302;10.128;2023-04-01T07:16:11;5.50;99.90
15707;DHT22;7953;54.302;10.128;2023-04-01T07:18:42;5.50;99.90
15707;DHT22;7953;54.302;10.128;2023-04-01T07:21:21;5.50;99.90
15707;DHT22;7953;54.302;10.128;2023-04-01T07:23:49;5.50;99.90
15707;DHT22;7953;54.302;10.128;2023-04-01T07:26:20;5.50;99.90
15707;DHT22;7953;54.302;10.128;2023-04-01T07:28:48;5.50;99.90
15707;DHT22;7953;54.302;10.128;2023-04-01T07:31:22;5.50;99.90
15707;DHT22;7953;54.302;10.128;2023-04-01T07:33:57;5.50;99.90
15707;DHT22;7953;54.302;10.128;2023-04-01T07:36:31;5.50;99.90
15707;DHT22;7953;54.302;10.128;2023-04-01T07:39:08;5.50;99.90
15707;DHT22;7953;54.302;10.128;2023-04-01T07:41:48;5.60;99.90
15707;DHT22;7953;54.302;10.128;2023-04-01T07:44:24;5.60;99.90
15707;DHT22;7953;54.302;10.128;2023-04-01T07:47:10;5.60;99.90
15707;DHT22;7953;54.302;10.128;2023-04-01T07:49:49;5.60;99.90
15707;DHT22;7953;54.302;10.128;2023-04-01T07:52:21;5.50;99.90
15707;DHT22;7953;54.302;10.128;2023-04-01T07:54:57;5.60;99.90
15707;DHT22;7953;54.302;10.128;2023-04-01T07:57:33;5.60;99.90
15707;DHT22;7953;54.302;10.128;2023-04-01T08:00:08;5.60;99.90
15707;DHT22;7953;54.302;10.128;2023-04-01T08:02:47;5.60;99.90
15707;DHT22;7953;54.302;10.128;2023-04-01T08:05:21;5.60;99.90
15707;DHT22;7953;54.302;10.128;2023-04-01T08:07:59;5.60;99.90
15707;DHT22;7953;54.302;10.128;2023-04-01T08:10:36;5.60;99.90
15707;DHT22;7953;54.302;10.128;2023-04-01T08:13:31;5.50;99.90
15707;DHT22;7953;54.302;10.128;2023-04-01T08:16:11;5.50;99.90
15707;DHT22;7953;54.302;10.128;2023-04-01T08:18:50;5.50;99.90
15707;DHT22;7953;54.302;10.128;2023-04-01T08:21:22;5.50;99.90
15707;DHT22;7953;54.302;10.128;2023-04-01T08:23:52;5.50;99.90
15707;DHT22;7953;54.302;10.128;2023-04-01T08:26:28;5.50;99.90
15707;DHT22;7953;54.302;10.128;2023-04-01T08:29:01;5.50;99.90
15707;DHT22;7953;54.302;10.128;2023-04-01T08:31:32;5.50;99.90
15707;DHT22;7953;54.302;10.128;2023-04-01T08:34:00;5.50;99.90
15707;DHT22;7953;54.302;10.128;2023-04-01T08:36:33;5.50;99.90
15707;DHT22;7953;54.302;10.128;2023-04-01T08:39:04;5.50;99.90
15707;DHT22;7953;54.302;10.128;2023-04-01T08:44:43;5.50;99.90
15707;DHT22;7953;54.302;10.128;2023-04-01T08:47:24;5.50;99.90
15707;DHT22;7953;54.302;10.128;2023-04-01T08:50:23;5.60;99.90
15707;DHT22;7953;54.302;10.128;2023-04-01T08:52:58;5.50;99.90
15707;DHT22;7953;54.302;10.128;2023-04-01T08:55:41;5.60;99.90
15707;DHT22;7953;54.302;10.128;2023-04-01T09:01:17;5.50;99.90
15707;DHT22;7953;54.302;10.128;2023-04-01T09:04:13;5.50;99.90
15707;DHT22;7953;54.302;10.128;2023-04-01T09:06:54;5.40;99.90
15707;DHT22;7953;54.302;10.128;2023-04-01T09:09:45;5.40;99.90
15707;DHT22;7953;54.302;10.128;2023-04-01T09:12:33;5.40;99.90
15707;DHT22;7953;54.302;10.128;2023-04-01T09:15:27;5.30;99.90
15707;DHT22;7953;54.302;10.128;2023-04-01T09:18:40;5.40;99.90
15707;DHT22;7953;54.302;10.128;2023-04-01T09:21:24;5.40;99.90
15707;DHT22;7953;54.302;10.128;2023-04-01T09:24:12;5.40;99.90
15707;DHT22;7953;54.302;10.128;2023-04-01T09:26:56;5.30;99.90
15707;DHT22;7953;54.302;10.128;2023-04-01T09:29:42;5.30;99.90
15707;DHT22;7953;54.302;10.128;2023-04-01T09:32:42;5.30;99.90
15707;DHT22;7953;54.302;10.128;2023-04-01T09:35:23;5.20;99.90
15707;DHT22;7953;54.302;10.128;2023-04-01T09:37:58;5.20;99.90
15707;DHT22;7953;54.302;10.128;2023-04-01T09:40:35;5.20;99.90
15707;DHT22;7953;54.302;10.128;2023-04-01T09:43:23;5.20;99.90
15707;DHT22;7953;54.302;10.128;2023-04-01T09:46:14;5.30;99.90
15707;DHT22;7953;54.302;10.128;2023-04-01T09:51:42;5.20;99.90
15707;DHT22;7953;54.302;10.128;2023-04-01T09:54:24;5.20;99.90
15707;DHT22;7953;54.302;10.128;2023-04-01T09:57:13;5.20;99.90
15707;DHT22;7953;54.302;10.128;2023-04-01T10:00:10;5.20;99.90
15707;DHT22;7953;54.302;10.128;2023-04-01T10:06:21;5.20;99.90
15707;DHT22;7953;54.302;10.128;2023-04-01T10:12:25;5.10;99.90
15707;DHT22;7953;54.302;10.128;2023-04-01T10:15:23;5.20;99.90
15707;DHT22;7953;54.302;10.128;2023-04-01T10:24:19;5.20;99.90
15707;DHT22;7953;54.302;10.128;2023-04-01T10:27:06;5.20;99.90
15707;DHT22;7953;54.302;10.128;2023-04-01T10:30:05;5.10;99.90
15707;DHT22;7953;54.302;10.128;2023-04-01T10:36:33;4.90;99.90
15707;DHT22;7953;54.302;10.128;2023-04-01T10:45:30;4.80;99.90
15707;DHT22;7953;54.302;10.128;2023-04-01T10:48:23;4.70;99.90
15707;DHT22;7953;54.302;10.128;2023-04-01T10:56:57;4.80;99.90
15707;DHT22;7953;54.302;10.128;2023-04-01T10:59:53;4.70;99.90
15707;DHT22;7953;54.302;10.128;2023-04-01T11:09:18;4.70;99.90
15707;DHT22;7953;54.302;10.128;2023-04-01T11:15:26;4.70;99.90
15707;DHT22;7953;54.302;10.128;2023-04-01T11:18:32;4.70;99.90
15707;DHT22;7953;54.302;10.128;2023-04-01T11:24:34;4.70;99.90
15707;DHT22;7953;54.302;10.128;2023-04-01T11:27:17;4.70;99.90
15707;DHT22;7953;54.302;10.128;2023-04-01T11:30:16;4.60;99.90
15707;DHT22;7953;54.302;10.128;2023-04-01T11:32:57;4.60;99.90
15707;DHT22;7953;54.302;10.128;2023-04-01T11:35:46;4.60;99.90
15707;DHT22;7953;54.302;10.128;2023-04-01T11:38:24;4.60;99.90
15707;DHT22;7953;54.302;10.128;2023-04-01T11:43:38;4.60;99.90
15707;DHT22;7953;54.302;10.128;2023-04-01T11:46:11;4.60;99.90
15707;DHT22;7953;54.302;10.128;2023-04-01T11:48:54;4.60;99.90
15707;DHT22;7953;54.302;10.128;2023-04-01T11:51:50;4.70;99.90
15707;DHT22;7953;54.302;10.128;2023-04-01T11:54:28;4.70;99.90
15707;DHT22;7953;54.302;10.128;2023-04-01T11:57:12;4.70;99.90
15707;DHT22;7953;54.302;10.128;2023-04-01T11:59:57;4.70;99.90
15707;DHT22;7953;54.302;10.128;2023-04-01T12:02:36;4.80;99.90
15707;DHT22;7953;54.302;10.128;2023-04-01T12:05:29;4.90;99.90
15707;DHT22;7953;54.302;10.128;2023-04-01T12:08:21;4.80;99.90
15707;DHT22;7953;54.302;10.128;2023-04-01T12:10:57;4.90;99.90
15707;DHT22;7953;54.302;10.128;2023-04-01T12:13:35;4.90;99.90
15707;DHT22;7953;54.302;10.128;2023-04-01T12:16:15;4.90;99.90
15707;DHT22;7953;54.302;10.128;2023-04-01T12:18:52;4.90;99.90
15707;DHT22;7953;54.302;10.128;2023-04-01T12:21:25;4.90;99.90
15707;DHT22;7953;54.302;10.128;2023-04-01T12:24:25;4.90;99.90
15707;DHT22;7953;54.302;10.128;2023-04-01T12:30:19;4.90;99.90
15707;DHT22;7953;54.302;10.128;2023-04-01T12:33:00;4.90;99.90
15707;DHT22;7953;54.302;10.128;2023-04-01T12:35:42;4.90;99.90
15707;DHT22;7953;54.302;10.128;2023-04-01T12:38:20;5.00;99.90
15707;DHT22;7953;54.302;10.128;2023-04-01T12:41:08;5.00;99.90
15707;DHT22;7953;54.302;10.128;2023-04-01T12:44:12;5.10;99.90
15707;DHT22;7953;54.302;10.128;2023-04-01T12:46:54;5.00;99.90
15707;DHT22;7953;54.302;10.128;2023-04-01T12:49:40;5.00;99.90
15707;DHT22;7953;54.302;10.128;2023-04-01T12:52:13;5.00;99.90
15707;DHT22;7953;54.302;10.128;2023-04-01T12:58:10;5.10;99.90
15707;DHT22;7953;54.302;10.128;2023-04-01T13:01:08;5.20;99.90
15707;DHT22;7953;54.302;10.128;2023-04-01T13:03:53;5.20;99.90
15707;DHT22;7953;54.302;10.128;2023-04-01T13:06:49;5.30;99.90
15707;DHT22;7953;54.302;10.128;2023-04-01T13:09:31;5.20;99.90
15707;DHT22;7953;54.302;10.128;2023-04-01T13:12:23;5.20;99.90
15707;DHT22;7953;54.302;10.128;2023-04-01T13:15:11;5.10;99.90
15707;DHT22;7953;54.302;10.128;2023-04-01T13:17:44;5.20;99.90
15707;DHT22;7953;54.302;10.128;2023-04-01T13:20:23;5.20;99.90
15707;DHT22;7953;54.302;10.128;2023-04-01T13:23:03;5.20;99.90
15707;DHT22;7953;54.302;10.128;2023-04-01T13:25:39;5.10;99.90
15707;DHT22;7953;54.302;10.128;2023-04-01T13:28:15;5.10;99.90
15707;DHT22;7953;54.302;10.128;2023-04-01T13:30:47;5.10;99.90
15707;DHT22;7953;54.302;10.128;2023-04-01T13:33:21;5.10;99.90
15707;DHT22;7953;54.302;10.128;2023-04-01T13:36:02;5.10;99.90
15707;DHT22;7953;54.302;10.128;2023-04-01T13:38:44;5.10;99.90
15707;DHT22;7953;54.302;10.128;2023-04-01T13:41:22;5.10;99.90
15707;DHT22;7953;54.302;10.128;2023-04-01T13:44:08;5.10;99.90
15707;DHT22;7953;54.302;10.128;2023-04-01T13:46:52;5.00;99.90
15707;DHT22;7953;54.302;10.128;2023-04-01T13:55:39;4.90;99.90
15707;DHT22;7953;54.302;10.128;2023-04-01T13:58:35;4.90;99.90
15707;DHT22;7953;54.302;10.128;2023-04-01T14:01:08;4.90;99.90
15707;DHT22;7953;54.302;10.128;2023-04-01T14:04:03;5.00;99.90
15707;DHT22;7953;54.302;10.128;2023-04-01T14:06:38;5.00;99.90
15707;DHT22;7953;54.302;10.128;2023-04-01T14:09:23;5.00;99.90
15707;DHT22;7953;54.302;10.128;2023-04-01T14:11:56;5.00;99.90
15707;DHT22;7953;54.302;10.128;2023-04-01T14:14:36;5.00;99.90
15707;DHT22;7953;54.302;10.128;2023-04-01T14:17:19;5.00;99.90
15707;DHT22;7953;54.302;10.128;2023-04-01T14:20:02;5.00;99.90
15707;DHT22;7953;54.302;10.128;2023-04-01T14:22:38;5.00;99.90
15707;DHT22;7953;54.302;10.128;2023-04-01T14:25:21;4.90;99.90
15707;DHT22;7953;54.302;10.128;2023-04-01T14:27:59;4.90;99.90
15707;DHT22;7953;54.302;10.128;2023-04-01T14:31:03;4.90;99.90
15707;DHT22;7953;54.302;10.128;2023-04-01T14:33:42;4.80;99.90
15707;DHT22;7953;54.302;10.128;2023-04-01T14:36:27;4.80;99.90
15707;DHT22;7953;54.302;10.128;2023-04-01T14:39:04;4.80;99.90
15707;DHT22;7953;54.302;10.128;2023-04-01T14:41:42;4.70;99.90
15707;DHT22;7953;54.302;10.128;2023-04-01T14:47:24;4.80;99.90
15707;DHT22;7953;54.302;10.128;2023-04-01T14:50:05;4.80;99.90
15707;DHT22;7953;54.302;10.128;2023-04-01T14:52:35;4.70;99.90
15707;DHT22;7953;54.302;10.128;2023-04-01T14:55:20;4.80;99.90
15707;DHT22;7953;54.302;10.128;2023-04-01T14:57:58;4.70;99.90
15707;DHT22;7953;54.302;10.128;2023-04-01T15:00:26;4.70;99.90
15707;DHT22;7953;54.302;10.128;2023-04-01T15:02:58;4.60;99.90
15707;DHT22;7953;54.302;10.128;2023-04-01T15:05:37;4.60;99.90
15707;DHT22;7953;54.302;10.128;2023-04-01T15:08:09;4.70;99.90
15707;DHT22;7953;54.302;10.128;2023-04-01T15:10:51;4.70;99.90
15707;DHT22;7953;54.302;10.128;2023-04-01T15:13:30;4.70;99.90
15707;DHT22;7953;54.302;10.128;2023-04-01T15:16:13;4.60;99.90
15707;DHT22;7953;54.302;10.128;2023-04-01T15:18:53;4.60;99.90
15707;DHT22;7953;54.302;10.128;2023-04-01T15:21:49;4.60;99.90
15707;DHT22;7953;54.302;10.128;2023-04-01T15:24:22;4.50;99.90
15707;DHT22;7953;54.302;10.128;2023-04-01T15:27:12;4.60;99.90
15707;DHT22;7953;54.302;10.128;2023-04-01T15:30:02;4.60;99.90
15707;DHT22;7953;54.302;10.128;2023-04-01T15:32:46;4.70;99.90
15707;DHT22;7953;54.302;10.128;2023-04-01T15:35:30;4.60;99.90
15707;DHT22;7953;54.302;10.128;2023-04-01T15:38:05;4.60;99.90
15707;DHT22;7953;54.302;10.128;2023-04-01T15:40:38;4.70;99.90
15707;DHT22;7953;54.302;10.128;2023-04-01T15:43:18;4.60;99.90
15707;DHT22;7953;54.302;10.128;2023-04-01T15:45:57;4.70;99.90
15707;DHT22;7953;54.302;10.128;2023-04-01T15:48:38;4.80;99.90
15707;DHT22;7953;54.302;10.128;2023-04-01T15:51:39;4.90;99.90
15707;DHT22;7953;54.302;10.128;2023-04-01T15:54:37;4.90;99.90
15707;DHT22;7953;54.302;10.128;2023-04-01T15:57:25;4.90;99.90
15707;DHT22;7953;54.302;10.128;2023-04-01T16:00:18;4.90;99.90
15707;DHT22;7953;54.302;10.128;2023-04-01T16:02:48;5.00;99.90
15707;DHT22;7953;54.302;10.128;2023-04-01T16:05:28;5.00;99.90
15707;DHT22;7953;54.302;10.128;2023-04-01T16:08:12;5.10;99.90
15707;DHT22;7953;54.302;10.128;2023-04-01T16:11:01;5.20;99.90
15707;DHT22;7953;54.302;10.128;2023-04-01T16:13:42;5.30;99.90
15707;DHT22;7953;54.302;10.128;2023-04-01T16:16:19;5.30;99.90
15707;DHT22;7953;54.302;10.128;2023-04-01T16:19:12;5.20;99.90
15707;DHT22;7953;54.302;10.128;2023-04-01T16:21:48;5.20;99.90
15707;DHT22;7953;54.302;10.128;2023-04-01T16:24:23;5.30;99.90
15707;DHT22;7953;54.302;10.128;2023-04-01T16:26:55;5.30;99.90
15707;DHT22;7953;54.302;10.128;2023-04-01T16:29:29;5.30;99.90
15707;DHT22;7953;54.302;10.128;2023-04-01T16:32:27;5.30;99.90
15707;DHT22;7953;54.302;10.128;2023-04-01T16:35:03;5.20;99.90
15707;DHT22;7953;54.302;10.128;2023-04-01T16:37:36;5.10;99.90
15707;DHT22;7953;54.302;10.128;2023-04-01T16:40:16;4.90;99.90
15707;DHT22;7953;54.302;10.128;2023-04-01T16:42:51;4.70;99.90
15707;DHT22;7953;54.302;10.128;2023-04-01T16:45:26;4.70;99.90
15707;DHT22;7953;54.302;10.128;2023-04-01T16:47:59;4.60;99.90
15707;DHT22;7953;54.302;10.128;2023-04-01T16:50:37;4.60;99.90
15707;DHT22;7953;54.302;10.128;2023-04-01T16:53:09;4.60;99.90
15707;DHT22;7953;54.302;10.128;2023-04-01T16:55:48;4.60;99.90
15707;DHT22;7953;54.302;10.128;2023-04-01T16:58:21;4.50;99.90
15707;DHT22;7953;54.302;10.128;2023-04-01T17:00:51;4.50;99.90
15707;DHT22;7953;54.302;10.128;2023-04-01T17:03:25;4.50;99.90
15707;DHT22;7953;54.302;10.128;2023-04-01T17:06:06;4.40;99.90
15707;DHT22;7953;54.302;10.128;2023-04-01T17:08:50;4.40;99.90
15707;DHT22;7953;54.302;10.128;2023-04-01T17:11:24;4.30;99.90
15707;DHT22;7953;54.302;10.128;2023-04-01T17:14:02;4.30;99.90
15707;DHT22;7953;54.302;10.128;2023-04-01T17:19:36;4.10;99.90
15707;DHT22;7953;54.302;10.128;2023-04-01T17:22:13;4.20;99.90
15707;DHT22;7953;54.302;10.128;2023-04-01T17:24:52;4.10;99.90
15707;DHT22;7953;54.302;10.128;2023-04-01T17:27:30;4.10;99.90
15707;DHT22;7953;54.302;10.128;2023-04-01T17:30:24;4.10;99.90
15707;DHT22;7953;54.302;10.128;2023-04-01T17:33:10;4.00;99.90
15707;DHT22;7953;54.302;10.128;2023-04-01T17:35:43;4.00;99.90
15707;DHT22;7953;54.302;10.128;2023-04-01T17:38:23;3.90;99.90
15707;DHT22;7953;54.302;10.128;2023-04-01T17:41:01;3.90;99.90
15707;DHT22;7953;54.302;10.128;2023-04-01T17:43:42;3.80;99.90
15707;DHT22;7953;54.302;10.128;2023-04-01T17:46:29;3.80;99.90
15707;DHT22;7953;54.302;10.128;2023-04-01T17:49:02;3.70;99.90
15707;DHT22;7953;54.302;10.128;2023-04-01T17:51:41;3.70;99.90
15707;DHT22;7953;54.302;10.128;2023-04-01T17:54:21;3.60;99.90
15707;DHT22;7953;54.302;10.128;2023-04-01T17:57:02;3.60;99.90